createdAt,value
2018-08-31T00:01:14.284Z,7.43
2018-08-31T00:04:56.922Z,3.73
2018-08-31T00:07:40.417Z,5.63
2018-08-31T00:12:39.552Z,8.00
2018-08-31T00:15:08.545Z,6.53
2018-08-31T00:17:38.221Z,7.83
2018-08-31T00:20:06.944Z,3.83
2018-08-31T00:22:35.430Z,5.97
2018-08-31T00:26:19.149Z,5.50
2018-08-31T00:29:44.232Z,9.20
2018-08-31T00:32:23.894Z,5.63
2018-08-31T00:35:32.327Z,8.00
2018-08-31T00:38:12.278Z,7.60
2018-08-31T00:42:57.160Z,9.67
2018-08-31T00:45:28.773Z,7.00
2018-08-31T00:47:59.144Z,5.63
2018-08-31T00:50:27.891Z,5.43
2018-08-31T00:52:56.567Z,5.33
2018-08-31T00:55:25.061Z,4.67
2018-08-31T00:57:53.533Z,5.60
2018-08-31T01:00:22.041Z,6.43
2018-08-31T01:02:50.481Z,5.50
2018-08-31T01:05:19.406Z,8.43
2018-08-31T01:07:48.458Z,6.17
2018-08-31T01:10:18.409Z,6.87
2018-08-31T01:12:46.915Z,3.73
2018-08-31T01:15:15.405Z,5.80
2018-08-31T01:17:43.916Z,7.03
2018-08-31T01:20:12.345Z,6.60
2018-08-31T01:22:40.805Z,7.93
2018-08-31T01:25:10.377Z,8.70
2018-08-31T01:27:38.855Z,5.47
2018-08-31T01:30:08.221Z,14.40
2018-08-31T01:32:36.657Z,4.17
2018-08-31T01:35:05.181Z,7.20
2018-08-31T01:37:33.654Z,4.23
2018-08-31T01:40:02.160Z,7.40
2018-08-31T01:42:30.621Z,5.67
2018-08-31T01:44:59.086Z,6.37
2018-08-31T01:47:27.549Z,5.73
2018-08-31T01:49:56.006Z,10.07
2018-08-31T01:52:24.459Z,8.07
2018-08-31T01:54:52.938Z,11.07
2018-08-31T01:57:21.428Z,6.23
2018-08-31T01:59:49.916Z,8.97
2018-08-31T02:02:19.813Z,3.60
2018-08-31T02:04:48.318Z,9.30
2018-08-31T02:07:16.753Z,7.07
2018-08-31T02:09:45.669Z,6.43
2018-08-31T02:12:14.586Z,9.67
2018-08-31T02:14:43.073Z,10.37
2018-08-31T02:17:11.517Z,6.47
2018-08-31T02:19:40.010Z,3.93
2018-08-31T02:22:08.525Z,7.97
2018-08-31T02:24:37.013Z,7.53
2018-08-31T02:27:05.511Z,5.77
2018-08-31T02:29:33.958Z,6.60
2018-08-31T02:32:02.405Z,7.33
2018-08-31T02:34:30.870Z,7.13
2018-08-31T02:36:59.354Z,5.50
2018-08-31T02:39:27.806Z,11.67
2018-08-31T02:41:56.280Z,6.47
2018-08-31T02:44:24.730Z,9.93
2018-08-31T02:46:53.247Z,6.10
2018-08-31T02:49:21.780Z,9.33
2018-08-31T02:51:50.234Z,8.60
2018-08-31T02:54:18.713Z,9.70
2018-08-31T02:56:47.237Z,7.50
2018-08-31T02:59:15.737Z,3.73
2018-08-31T03:01:44.206Z,8.80
2018-08-31T03:04:12.746Z,7.73
2018-08-31T03:06:41.250Z,5.80
2018-08-31T03:09:09.718Z,4.17
2018-08-31T03:11:38.287Z,10.00
2018-08-31T03:14:07.061Z,4.57
2018-08-31T03:16:35.553Z,5.13
2018-08-31T03:19:04.030Z,8.47
2018-08-31T03:21:32.456Z,8.83
2018-08-31T03:24:00.968Z,8.47
2018-08-31T03:26:30.034Z,8.20
2018-08-31T03:28:58.507Z,5.97
2018-08-31T03:31:26.988Z,7.07
2018-08-31T03:33:55.444Z,7.77
2018-08-31T03:36:23.905Z,7.87
2018-08-31T03:38:53.374Z,6.50
2018-08-31T03:41:21.834Z,11.33
2018-08-31T03:43:50.260Z,8.27
2018-08-31T03:46:18.733Z,6.67
2018-08-31T03:48:47.156Z,7.47
2018-08-31T03:51:15.672Z,8.90
2018-08-31T03:53:44.205Z,11.07
2018-08-31T03:56:12.710Z,6.20
2018-08-31T03:58:41.144Z,13.63
2018-08-31T04:01:09.684Z,10.50
2018-08-31T04:03:38.126Z,7.10
2018-08-31T04:06:06.627Z,8.90
2018-08-31T04:08:35.095Z,10.73
2018-08-31T04:11:03.557Z,8.83
2018-08-31T04:13:32.037Z,5.80
2018-08-31T04:16:00.529Z,10.97
2018-08-31T04:18:29.639Z,9.07
2018-08-31T04:20:58.111Z,12.03
2018-08-31T04:23:26.569Z,10.30
2018-08-31T04:25:55.085Z,8.10
2018-08-31T04:28:23.560Z,14.17
2018-08-31T04:30:52.074Z,8.13
2018-08-31T04:33:20.528Z,6.93
2018-08-31T04:35:49.018Z,9.77
2018-08-31T04:38:17.552Z,11.40
2018-08-31T04:40:46.061Z,8.03
2018-08-31T04:43:14.802Z,7.83
2018-08-31T04:45:43.284Z,8.93
2018-08-31T04:48:11.945Z,8.97
2018-08-31T04:50:40.487Z,11.90
2018-08-31T04:53:08.952Z,12.63
2018-08-31T04:55:37.449Z,9.03
2018-08-31T04:58:05.948Z,10.10
2018-08-31T05:00:34.423Z,8.70
2018-08-31T05:03:02.910Z,10.60
2018-08-31T05:05:31.371Z,6.57
2018-08-31T05:07:59.829Z,6.40
2018-08-31T05:10:28.436Z,12.13
2018-08-31T05:12:56.915Z,8.77
2018-08-31T05:15:25.375Z,10.63
2018-08-31T05:17:53.818Z,10.30
2018-08-31T05:20:22.268Z,7.40
2018-08-31T05:22:50.732Z,8.90
2018-08-31T05:25:19.193Z,9.80
2018-08-31T05:27:47.646Z,6.33
2018-08-31T05:30:16.126Z,8.03
2018-08-31T05:32:44.597Z,14.33
2018-08-31T05:35:13.054Z,10.23
2018-08-31T05:37:41.491Z,5.63
2018-08-31T05:40:09.968Z,6.93
2018-08-31T05:42:38.405Z,10.57
2018-08-31T05:45:08.575Z,9.60
2018-08-31T05:47:37.311Z,8.00
2018-08-31T05:50:05.905Z,11.73
2018-08-31T05:52:34.361Z,11.67
2018-08-31T05:55:03.054Z,7.70
2018-08-31T05:57:31.516Z,11.10
2018-08-31T06:00:00.122Z,9.90
2018-08-31T06:02:28.580Z,11.30
2018-08-31T06:04:57.019Z,8.90
2018-08-31T06:07:25.469Z,10.23
2018-08-31T06:09:54.078Z,7.30
2018-08-31T06:12:22.589Z,10.27
2018-08-31T06:14:51.142Z,16.47
2018-08-31T06:17:19.614Z,6.10
2018-08-31T06:19:48.065Z,12.63
2018-08-31T06:22:16.547Z,14.00
2018-08-31T06:24:44.993Z,12.23
2018-08-31T06:27:13.517Z,11.13
2018-08-31T06:29:41.961Z,14.40
2018-08-31T06:32:10.402Z,9.90
2018-08-31T06:34:39.373Z,10.10
2018-08-31T06:37:08.526Z,12.70
2018-08-31T06:39:36.988Z,10.17
2018-08-31T06:42:05.465Z,7.97
2018-08-31T06:44:33.897Z,12.50
2018-08-31T06:47:02.558Z,13.50
2018-08-31T06:49:31.049Z,10.27
2018-08-31T06:51:59.497Z,8.10
2018-08-31T06:54:27.955Z,13.30
2018-08-31T06:56:56.415Z,12.17
2018-08-31T06:59:24.878Z,12.50
2018-08-31T07:01:53.325Z,8.10
2018-08-31T07:04:21.844Z,10.27
2018-08-31T07:06:50.321Z,13.17
2018-08-31T07:09:18.786Z,6.87
2018-08-31T07:11:47.225Z,11.97
2018-08-31T07:14:15.664Z,9.00
2018-08-31T07:16:44.128Z,5.60
2018-08-31T07:19:12.678Z,8.63
2018-08-31T07:21:41.110Z,7.37
2018-08-31T07:24:09.554Z,10.27
2018-08-31T07:26:38.100Z,8.97
2018-08-31T07:29:06.561Z,10.17
2018-08-31T07:31:35.540Z,8.93
2018-08-31T07:34:04.005Z,12.83
2018-08-31T07:36:32.489Z,14.13
2018-08-31T07:39:00.926Z,9.40
2018-08-31T07:41:29.414Z,9.23
2018-08-31T07:43:57.853Z,10.40
2018-08-31T07:46:26.281Z,12.43
2018-08-31T07:48:54.734Z,12.47
2018-08-31T07:51:23.178Z,9.00
2018-08-31T07:53:51.660Z,9.70
2018-08-31T07:56:20.083Z,7.73
2018-08-31T07:58:48.557Z,8.33
2018-08-31T08:01:17.033Z,11.80
2018-08-31T08:03:45.565Z,12.57
2018-08-31T08:06:14.038Z,9.10
2018-08-31T08:08:42.592Z,11.87
2018-08-31T08:11:11.061Z,14.53
2018-08-31T08:13:39.490Z,10.90
2018-08-31T08:16:08.181Z,9.87
2018-08-31T08:18:36.565Z,9.33
2018-08-31T08:21:05.069Z,8.47
2018-08-31T08:23:33.519Z,8.80
2018-08-31T08:26:01.998Z,6.30
2018-08-31T08:28:30.577Z,6.77
2018-08-31T08:30:58.945Z,9.20
2018-08-31T08:33:27.393Z,12.07
2018-08-31T08:35:55.864Z,5.20
2018-08-31T08:38:24.305Z,9.47
2018-08-31T08:40:52.773Z,7.27
2018-08-31T08:43:21.227Z,8.57
2018-08-31T08:45:49.724Z,8.30
2018-08-31T08:48:18.250Z,7.37
2018-08-31T08:50:46.620Z,6.33
2018-08-31T08:53:15.153Z,7.60
2018-08-31T08:55:43.585Z,6.97
2018-08-31T08:58:12.090Z,11.03
2018-08-31T09:00:40.573Z,7.87
2018-08-31T09:03:09.064Z,10.97
2018-08-31T09:05:37.553Z,7.67
2018-08-31T09:08:06.252Z,9.13
2018-08-31T09:10:34.750Z,8.33
2018-08-31T09:13:03.211Z,8.73
2018-08-31T09:15:31.685Z,4.90
2018-08-31T09:18:00.124Z,8.37
2018-08-31T09:20:28.566Z,7.10
2018-08-31T09:22:57.253Z,10.13
2018-08-31T09:25:25.723Z,7.03
2018-08-31T09:27:54.159Z,8.97
2018-08-31T09:30:27.958Z,6.10
2018-08-31T09:32:56.462Z,7.03
2018-08-31T09:35:28.211Z,4.03
2018-08-31T09:37:57.818Z,5.60
2018-08-31T09:40:26.267Z,5.67
2018-08-31T09:42:54.717Z,4.13
2018-08-31T09:45:23.178Z,5.17
2018-08-31T09:47:51.612Z,4.37
2018-08-31T09:50:20.046Z,2.90
2018-08-31T09:52:48.507Z,4.97
2018-08-31T09:55:16.998Z,5.10
2018-08-31T09:57:45.446Z,5.10
2018-08-31T10:00:17.545Z,7.30
2018-08-31T10:02:51.389Z,5.80
2018-08-31T10:05:19.829Z,8.50
2018-08-31T10:07:48.281Z,4.73
2018-08-31T10:10:16.725Z,4.50
2018-08-31T10:12:45.153Z,4.97
2018-08-31T10:15:13.610Z,4.27
2018-08-31T10:17:42.037Z,3.30
2018-08-31T10:20:10.573Z,4.13
2018-08-31T10:22:38.998Z,5.77
2018-08-31T10:25:07.534Z,3.70
2018-08-31T10:27:35.976Z,4.43
2018-08-31T10:30:04.951Z,3.73
2018-08-31T10:32:33.376Z,3.23
2018-08-31T10:35:01.806Z,5.83
2018-08-31T10:37:30.281Z,4.97
2018-08-31T10:39:58.737Z,2.57
2018-08-31T10:42:27.198Z,2.87
2018-08-31T10:44:55.648Z,4.47
2018-08-31T10:47:24.137Z,3.47
2018-08-31T10:49:52.570Z,3.73
2018-08-31T10:52:21.073Z,5.20
2018-08-31T10:54:49.546Z,6.97
2018-08-31T10:57:18.014Z,6.87
2018-08-31T10:59:46.519Z,4.20
2018-08-31T11:02:15.108Z,2.83
2018-08-31T11:04:44.237Z,3.10
2018-08-31T11:07:12.888Z,3.10
2018-08-31T11:09:41.437Z,3.90
2018-08-31T11:12:09.945Z,6.23
2018-08-31T11:14:38.410Z,6.27
2018-08-31T11:17:07.229Z,3.00
2018-08-31T11:19:35.812Z,3.07
2018-08-31T11:22:04.270Z,3.47
2018-08-31T11:24:32.757Z,5.00
2018-08-31T11:27:01.188Z,2.50
2018-08-31T11:29:29.700Z,3.87
2018-08-31T11:31:58.242Z,3.40
2018-08-31T11:34:26.699Z,2.50
2018-08-31T11:36:55.178Z,2.93
2018-08-31T11:39:23.618Z,3.80
2018-08-31T11:41:52.084Z,3.33
2018-08-31T11:44:20.568Z,3.47
2018-08-31T11:46:49.038Z,4.20
2018-08-31T11:49:17.476Z,6.30
2018-08-31T11:51:45.937Z,4.93
2018-08-31T11:54:14.380Z,6.00
2018-08-31T11:56:42.833Z,5.53
2018-08-31T11:59:11.293Z,5.47
2018-08-31T12:01:39.791Z,2.70
2018-08-31T12:04:08.255Z,3.43
2018-08-31T12:06:36.718Z,4.93
2018-08-31T12:09:07.638Z,5.57
2018-08-31T12:11:36.088Z,4.33
2018-08-31T12:14:04.584Z,4.23
2018-08-31T12:16:33.817Z,5.10
2018-08-31T12:19:02.937Z,2.30
2018-08-31T12:21:31.430Z,2.97
2018-08-31T12:23:59.892Z,3.73
2018-08-31T12:26:28.368Z,4.77
2018-08-31T12:28:56.818Z,3.17
2018-08-31T12:31:25.297Z,6.87
2018-08-31T12:33:53.782Z,3.80
2018-08-31T12:36:23.231Z,4.00
2018-08-31T12:38:51.667Z,5.90
2018-08-31T12:41:20.115Z,4.00
2018-08-31T12:43:48.639Z,2.90
2018-08-31T12:46:17.050Z,3.50
2018-08-31T12:48:45.525Z,4.33
2018-08-31T12:51:13.989Z,3.57
2018-08-31T12:53:42.426Z,2.83
2018-08-31T12:56:10.962Z,2.33
2018-08-31T12:58:39.408Z,3.07
2018-08-31T13:01:07.906Z,3.37
2018-08-31T13:03:36.817Z,3.87
2018-08-31T13:06:05.377Z,1.60
2018-08-31T13:08:33.808Z,3.77
2018-08-31T13:11:02.319Z,3.30
2018-08-31T13:13:30.729Z,3.03
2018-08-31T13:15:59.218Z,2.47
2018-08-31T13:18:27.677Z,4.87
2018-08-31T13:20:56.188Z,1.97
2018-08-31T13:23:24.809Z,2.07
2018-08-31T13:25:53.270Z,2.57
2018-08-31T13:28:22.737Z,2.73
2018-08-31T13:30:51.169Z,5.30
2018-08-31T13:33:19.623Z,2.73
2018-08-31T13:35:48.117Z,4.70
2018-08-31T13:38:16.629Z,1.77
2018-08-31T13:40:45.033Z,2.60
2018-08-31T13:43:13.893Z,1.30
2018-08-31T13:45:42.349Z,1.70
2018-08-31T13:48:10.830Z,2.10
2018-08-31T13:50:39.275Z,3.30
2018-08-31T13:53:07.710Z,3.33
2018-08-31T13:55:36.910Z,3.67
2018-08-31T13:58:05.339Z,4.37
2018-08-31T14:00:33.785Z,3.30
2018-08-31T14:03:02.221Z,3.37
2018-08-31T14:05:31.048Z,4.70
2018-08-31T14:07:59.486Z,1.13
2018-08-31T14:10:28.117Z,4.83
2018-08-31T14:12:57.505Z,1.97
2018-08-31T14:15:25.927Z,2.13
2018-08-31T14:17:54.430Z,1.17
2018-08-31T14:20:22.862Z,2.37
2018-08-31T14:22:51.321Z,5.03
2018-08-31T14:25:19.763Z,2.87
2018-08-31T14:27:48.373Z,2.73
2018-08-31T14:30:16.924Z,1.50
2018-08-31T14:32:45.402Z,3.60
2018-08-31T14:35:13.935Z,4.30
2018-08-31T14:37:42.401Z,4.03
2018-08-31T14:40:10.873Z,2.20
2018-08-31T14:42:39.551Z,0.90
2018-08-31T14:45:08.632Z,4.03
2018-08-31T14:47:37.150Z,3.67
2018-08-31T14:50:06.518Z,2.23
2018-08-31T14:52:34.974Z,2.03
2018-08-31T14:55:03.689Z,2.90
2018-08-31T14:57:32.180Z,1.57
2018-08-31T15:00:00.585Z,1.73
2018-08-31T15:02:29.229Z,3.03
2018-08-31T15:04:57.686Z,3.50
2018-08-31T15:07:26.120Z,7.10
2018-08-31T15:09:54.910Z,1.07
2018-08-31T15:12:24.055Z,2.10
2018-08-31T15:14:52.579Z,3.43
2018-08-31T15:17:21.881Z,1.80
2018-08-31T15:19:50.401Z,3.17
2018-08-31T15:22:19.660Z,4.17
2018-08-31T15:24:48.397Z,3.73
2018-08-31T15:27:16.960Z,3.13
2018-08-31T15:29:45.406Z,2.00
2018-08-31T15:32:13.845Z,2.20
2018-08-31T15:34:42.308Z,2.70
2018-08-31T15:37:10.860Z,3.10
2018-08-31T15:39:39.341Z,2.80
2018-08-31T15:42:07.873Z,3.73
2018-08-31T15:44:36.297Z,3.90
2018-08-31T15:47:04.918Z,3.70
2018-08-31T15:49:33.392Z,2.70
2018-08-31T15:52:02.193Z,1.67
2018-08-31T15:54:30.701Z,3.90
2018-08-31T15:56:59.140Z,4.63
2018-08-31T15:59:27.587Z,3.97
2018-08-31T16:01:56.029Z,1.40
2018-08-31T16:04:24.587Z,2.03
2018-08-31T16:06:53.015Z,4.37
2018-08-31T16:09:21.536Z,5.37
2018-08-31T16:11:49.968Z,2.97
2018-08-31T16:14:18.490Z,1.73
2018-08-31T16:16:46.938Z,2.40
2018-08-31T16:19:15.370Z,3.27
2018-08-31T16:21:43.856Z,3.60
2018-08-31T16:24:12.317Z,3.10
2018-08-31T16:26:40.824Z,2.23
2018-08-31T16:29:09.281Z,2.83
2018-08-31T16:31:37.802Z,1.40
2018-08-31T16:34:06.579Z,3.60
2018-08-31T16:36:35.041Z,4.77
2018-08-31T16:39:04.385Z,3.40
2018-08-31T16:41:32.828Z,1.93
2018-08-31T16:44:01.245Z,2.53
2018-08-31T16:46:29.810Z,3.13
2018-08-31T16:48:58.246Z,2.37
2018-08-31T16:51:26.694Z,2.40
2018-08-31T16:53:55.132Z,1.97
2018-08-31T16:56:23.642Z,3.17
2018-08-31T16:58:52.094Z,2.33
2018-08-31T17:01:20.564Z,2.70
2018-08-31T17:03:49.109Z,2.97
2018-08-31T17:06:17.553Z,1.50
2018-08-31T17:08:46.061Z,5.47
2018-08-31T17:11:14.494Z,3.07
2018-08-31T17:13:42.974Z,3.30
2018-08-31T17:16:11.424Z,2.77
2018-08-31T17:18:39.882Z,1.40
2018-08-31T17:21:08.384Z,6.83
2018-08-31T17:23:36.860Z,3.73
2018-08-31T17:26:05.322Z,2.43
2018-08-31T17:28:39.140Z,6.37
2018-08-31T17:31:12.988Z,3.03
2018-08-31T17:33:46.778Z,3.57
2018-08-31T17:36:20.574Z,2.93
2018-08-31T17:38:49.064Z,3.60
2018-08-31T17:41:17.542Z,3.43
2018-08-31T17:43:46.161Z,2.90
2018-08-31T17:46:14.635Z,5.10
2018-08-31T17:48:43.277Z,3.33
2018-08-31T17:51:11.732Z,3.00
2018-08-31T17:53:40.213Z,4.07
2018-08-31T17:56:08.769Z,6.80
2018-08-31T17:58:37.292Z,2.50
2018-08-31T18:01:06.116Z,3.23
2018-08-31T18:03:34.554Z,5.23
2018-08-31T18:06:02.986Z,3.57
2018-08-31T18:08:31.457Z,3.10
2018-08-31T18:10:59.881Z,5.50
2018-08-31T18:13:28.354Z,2.27
2018-08-31T18:15:56.928Z,2.73
2018-08-31T18:18:25.278Z,3.47
2018-08-31T18:20:53.751Z,2.67
2018-08-31T18:23:22.785Z,4.73
2018-08-31T18:25:51.475Z,3.47
2018-08-31T18:28:19.865Z,5.30
2018-08-31T18:30:48.321Z,3.47
2018-08-31T18:33:16.789Z,3.77
2018-08-31T18:35:45.242Z,4.47
2018-08-31T18:38:13.772Z,3.13
2018-08-31T18:40:42.221Z,2.53
2018-08-31T18:43:10.701Z,3.67
2018-08-31T18:45:39.269Z,2.07
2018-08-31T18:48:07.746Z,2.70
2018-08-31T18:50:36.241Z,2.63
2018-08-31T18:53:04.730Z,3.90
2018-08-31T18:55:33.182Z,4.50
2018-08-31T18:58:01.941Z,4.20
2018-08-31T19:00:30.421Z,6.87
2018-08-31T19:02:58.876Z,7.03
2018-08-31T19:05:27.322Z,7.37
2018-08-31T19:07:55.784Z,6.40
2018-08-31T19:10:24.245Z,5.43
2018-08-31T19:12:52.751Z,8.50
2018-08-31T19:15:21.185Z,6.13
2018-08-31T19:17:50.145Z,7.07
2018-08-31T19:20:18.686Z,5.17
2018-08-31T19:22:47.546Z,6.87
2018-08-31T19:25:16.788Z,7.27
2018-08-31T19:27:45.452Z,4.33
2018-08-31T19:30:13.913Z,7.30
2018-08-31T19:32:42.356Z,5.37
2018-08-31T19:35:10.911Z,5.57
2018-08-31T19:37:39.484Z,5.67
2018-08-31T19:40:08.348Z,7.33
2018-08-31T19:42:36.810Z,5.03
2018-08-31T19:45:06.490Z,5.70
2018-08-31T19:47:35.281Z,4.03
2018-08-31T19:50:03.875Z,4.57
2018-08-31T19:52:32.366Z,4.43
2018-08-31T19:55:01.243Z,3.47
2018-08-31T19:57:29.893Z,2.77
2018-08-31T19:59:58.497Z,5.03
2018-08-31T20:02:27.004Z,4.93
2018-08-31T20:04:55.519Z,3.13
2018-08-31T20:10:29.505Z,4.63
2018-08-31T20:12:58.615Z,2.70
2018-08-31T20:15:27.089Z,2.73
2018-08-31T20:17:55.579Z,4.43
2018-08-31T20:20:24.045Z,4.77
2018-08-31T20:22:52.632Z,4.50
2018-08-31T20:25:21.115Z,4.53
2018-08-31T20:27:49.589Z,4.70
2018-08-31T20:30:18.151Z,5.30
2018-08-31T20:32:46.698Z,3.17
2018-08-31T20:35:15.244Z,3.07
2018-08-31T20:37:43.741Z,2.97
2018-08-31T20:40:12.258Z,3.73
2018-08-31T20:42:40.737Z,3.77
2018-08-31T20:45:09.813Z,3.13
2018-08-31T20:50:29.517Z,2.70
2018-08-31T20:52:57.986Z,4.27
2018-08-31T20:55:26.446Z,6.17
2018-08-31T20:57:54.926Z,3.47
2018-08-31T21:00:23.520Z,3.70
2018-08-31T21:02:52.001Z,4.57
2018-08-31T21:05:20.447Z,3.43
2018-08-31T21:07:48.939Z,6.97
2018-08-31T21:10:17.405Z,4.40
2018-08-31T21:12:45.863Z,4.90
2018-08-31T21:15:14.987Z,6.50
2018-08-31T21:17:43.455Z,3.93
2018-08-31T21:20:11.913Z,6.10
2018-08-31T21:22:40.426Z,4.50
2018-08-31T21:25:31.166Z,5.67
2018-08-31T21:27:59.661Z,5.13
2018-08-31T21:30:28.141Z,5.30
2018-08-31T21:32:56.597Z,4.17
2018-08-31T21:35:25.057Z,4.50
2018-08-31T21:40:44.769Z,3.63
2018-08-31T21:43:13.222Z,2.97
2018-08-31T21:45:41.676Z,2.67
2018-08-31T21:48:10.210Z,4.37
2018-08-31T21:50:38.703Z,5.27
2018-08-31T21:53:07.181Z,6.13
2018-08-31T21:55:35.650Z,7.70
2018-08-31T21:58:04.155Z,7.03
2018-08-31T22:00:36.901Z,4.43
2018-08-31T22:03:06.196Z,3.30
2018-08-31T22:08:25.955Z,3.87
2018-08-31T22:10:54.431Z,4.13
2018-08-31T22:13:22.934Z,4.90
2018-08-31T22:15:51.407Z,5.40
2018-08-31T22:18:19.905Z,4.87
2018-08-31T22:20:48.345Z,5.47
2018-08-31T22:23:16.814Z,7.33
2018-08-31T22:25:45.296Z,5.57
2018-08-31T22:28:13.788Z,3.20
2018-08-31T22:30:42.231Z,4.57
2018-08-31T22:33:10.754Z,7.10
2018-08-31T22:35:39.302Z,5.10
2018-08-31T22:38:07.942Z,3.50
2018-08-31T22:40:36.427Z,4.30
2018-08-31T22:43:05.146Z,5.93
2018-08-31T22:45:34.233Z,4.43
2018-08-31T22:48:02.713Z,3.77
2018-08-31T22:50:31.170Z,3.90
2018-08-31T22:52:59.646Z,5.70
2018-08-31T22:55:28.089Z,5.63
2018-08-31T22:57:56.553Z,4.37
2018-08-31T23:00:26.558Z,5.33
2018-08-31T23:02:55.810Z,5.93
2018-08-31T23:05:24.577Z,6.37
2018-08-31T23:07:58.379Z,3.43
2018-08-31T23:10:27.285Z,5.17
2018-08-31T23:12:55.832Z,4.87
2018-08-31T23:15:24.283Z,2.93
2018-08-31T23:17:52.960Z,3.13
2018-08-31T23:20:22.123Z,6.57
2018-08-31T23:22:50.878Z,6.70
2018-08-31T23:25:24.930Z,8.23
2018-08-31T23:27:53.762Z,5.07
2018-08-31T23:30:22.575Z,5.40
2018-08-31T23:32:51.327Z,4.80
2018-08-31T23:35:19.780Z,5.40
2018-08-31T23:37:48.304Z,5.27
2018-08-31T23:40:16.753Z,5.10
2018-08-31T23:45:36.285Z,3.40
2018-08-31T23:48:04.758Z,3.70
2018-08-31T23:50:33.213Z,5.83
2018-08-31T23:53:01.845Z,3.00
2018-08-31T23:55:30.307Z,4.87
2018-08-31T23:57:58.756Z,3.67
